createdAt,value
2019-03-22T15:02:56.046Z,4.50
2019-03-22T15:15:59.372Z,5.27
2019-03-22T15:19:20.627Z,9.17
2019-03-22T15:22:42.544Z,4.60
2019-03-22T15:26:06.042Z,5.90
2019-03-22T15:32:18.507Z,5.57
2019-03-22T15:35:38.364Z,7.93
2019-03-22T15:38:43.488Z,4.50
2019-03-22T15:41:46.877Z,5.30
2019-03-22T15:44:50.308Z,9.17
2019-03-22T15:47:53.634Z,4.83
2019-03-22T15:50:57.008Z,5.90
2019-03-22T15:54:00.389Z,5.10
2019-03-22T15:57:03.891Z,7.80
2019-03-22T16:00:18.508Z,5.53
2019-03-22T16:03:21.867Z,6.30
2019-03-22T16:06:25.249Z,8.33
2019-03-22T16:09:28.618Z,6.30
2019-03-22T16:12:32.013Z,7.30
2019-03-22T16:15:35.388Z,7.57
2019-03-22T16:18:38.771Z,7.33
2019-03-22T16:21:42.155Z,6.80
2019-03-22T16:24:45.836Z,7.03
2019-03-22T16:27:49.241Z,6.77
2019-03-22T16:30:52.630Z,8.67
2019-03-22T16:33:56.034Z,7.60
2019-03-22T16:36:59.896Z,6.47
2019-03-22T16:40:04.761Z,7.70
2019-03-22T16:43:08.120Z,7.00
2019-03-22T16:46:11.610Z,4.57
2019-03-22T16:49:15.997Z,7.07
2019-03-22T16:52:19.376Z,6.97
2019-03-22T16:55:24.047Z,6.03
2019-03-22T16:58:27.742Z,5.17
2019-03-22T17:01:31.167Z,6.20
2019-03-22T17:04:34.575Z,8.57
2019-03-22T17:07:37.950Z,7.10
2019-03-22T17:10:41.668Z,6.73
2019-03-22T17:13:45.046Z,8.00
2019-03-22T17:16:48.778Z,9.63
2019-03-22T17:19:52.146Z,5.70
2019-03-22T17:22:55.544Z,9.40
2019-03-22T17:25:58.922Z,6.63
2019-03-22T17:29:02.302Z,4.67
2019-03-22T17:32:05.773Z,9.37
2019-03-22T17:35:10.097Z,9.57
2019-03-22T17:38:13.537Z,7.33
2019-03-22T17:41:16.967Z,7.53
2019-03-22T17:44:20.982Z,6.90
2019-03-22T17:47:24.361Z,7.63
2019-03-22T17:50:28.094Z,7.10
2019-03-22T17:53:31.537Z,9.93
2019-03-22T17:56:34.913Z,7.57
2019-03-22T17:59:38.291Z,8.43
2019-03-22T18:02:41.745Z,10.10
2019-03-22T18:05:45.122Z,9.77
2019-03-22T18:08:48.513Z,14.23
2019-03-22T18:11:51.885Z,10.50
2019-03-22T18:14:55.268Z,8.37
2019-03-22T18:17:58.989Z,9.30
2019-03-22T18:21:02.373Z,11.20
2019-03-22T18:24:05.757Z,11.10
2019-03-22T18:27:09.135Z,7.70
2019-03-22T18:30:14.757Z,13.33
2019-03-22T18:33:18.444Z,12.33
2019-03-22T18:36:21.895Z,8.57
2019-03-22T18:39:25.276Z,8.67
2019-03-22T18:42:28.660Z,6.60
2019-03-22T18:45:32.073Z,7.60
2019-03-22T18:48:35.445Z,8.40
2019-03-22T18:51:39.770Z,7.73
2019-03-22T18:54:43.204Z,8.00
2019-03-22T18:57:46.625Z,12.40
2019-03-22T19:00:50.026Z,7.67
2019-03-22T19:03:54.728Z,11.17
2019-03-22T19:06:58.102Z,8.60
2019-03-22T19:10:01.489Z,8.17
2019-03-22T19:13:04.867Z,7.90
2019-03-22T19:16:08.270Z,9.07
2019-03-22T19:19:11.707Z,11.37
2019-03-22T19:22:15.134Z,9.80
2019-03-22T19:25:18.510Z,6.50
2019-03-22T19:28:21.894Z,8.97
2019-03-22T19:31:25.319Z,9.20
2019-03-22T19:34:28.729Z,11.60
2019-03-22T19:37:32.122Z,7.77
2019-03-22T19:40:35.501Z,10.60
2019-03-22T19:43:39.942Z,8.20
2019-03-22T19:46:43.325Z,9.50
2019-03-22T19:49:46.728Z,8.43
2019-03-22T19:52:50.418Z,9.27
2019-03-22T19:55:53.876Z,7.53
2019-03-22T19:58:57.248Z,8.40
2019-03-22T20:02:00.645Z,11.17
2019-03-22T20:05:06.593Z,10.57
2019-03-22T20:08:13.746Z,8.87
2019-03-22T20:11:15.685Z,10.60
2019-03-22T20:14:19.066Z,10.30
2019-03-22T20:17:22.451Z,16.10
2019-03-22T20:20:25.914Z,13.97
2019-03-22T20:24:35.379Z,11.70
2019-03-22T20:27:40.433Z,13.30
2019-03-22T20:30:44.997Z,13.87
2019-03-22T20:33:49.768Z,14.30
2019-03-22T20:36:54.791Z,12.97
2019-03-22T20:39:59.295Z,14.13
2019-03-22T20:43:04.198Z,17.80
2019-03-22T20:46:09.315Z,18.10
2019-03-22T20:49:14.037Z,20.13
2019-03-22T20:52:18.479Z,20.40
2019-03-22T20:55:22.878Z,20.90
2019-03-22T20:58:27.405Z,20.27
2019-03-22T21:01:32.056Z,16.57
2019-03-22T21:04:36.643Z,17.73
2019-03-22T21:07:42.410Z,17.93
2019-03-22T21:10:46.978Z,13.50
2019-03-22T21:13:51.782Z,15.17
2019-03-22T21:16:56.445Z,17.70
2019-03-22T21:20:00.915Z,15.90
2019-03-22T21:23:05.676Z,15.23
2019-03-22T21:26:10.290Z,18.33
2019-03-22T21:29:15.261Z,12.40
2019-03-22T21:32:19.788Z,13.73
2019-03-22T21:35:24.280Z,19.33
2019-03-22T21:38:28.885Z,14.57
2019-03-22T21:41:33.567Z,17.57
2019-03-22T21:44:38.469Z,16.23
2019-03-22T21:47:43.127Z,16.50
2019-03-22T21:50:48.973Z,15.90
2019-03-22T21:53:53.474Z,16.53
2019-03-22T21:56:58.361Z,13.87
2019-03-22T22:00:03.314Z,15.80
2019-03-22T22:03:07.860Z,14.10
2019-03-22T22:06:12.711Z,15.67
2019-03-22T22:09:18.164Z,15.73
2019-03-22T22:12:22.994Z,14.20
2019-03-22T22:15:28.445Z,13.97
2019-03-22T22:18:36.082Z,15.40
2019-03-22T22:21:41.177Z,12.77
2019-03-22T22:24:45.700Z,16.23
2019-03-22T22:27:50.512Z,13.97
2019-03-22T22:30:55.042Z,15.67
2019-03-22T22:34:00.434Z,21.23
2019-03-22T22:37:04.815Z,12.77
2019-03-22T22:40:09.700Z,15.67
2019-03-22T22:43:14.936Z,12.87
2019-03-22T22:46:19.718Z,14.73
2019-03-22T22:49:24.293Z,14.83
2019-03-22T22:52:28.761Z,14.90
2019-03-22T22:55:33.246Z,13.77
2019-03-22T22:58:37.893Z,14.20
2019-03-22T23:01:42.821Z,16.70
2019-03-22T23:04:47.203Z,17.07
2019-03-22T23:07:51.782Z,15.57
2019-03-22T23:10:56.554Z,16.93
2019-03-22T23:14:01.055Z,16.80
2019-03-22T23:17:05.594Z,16.20
2019-03-22T23:20:11.149Z,13.13
2019-03-22T23:23:16.159Z,10.50
2019-03-22T23:26:20.585Z,11.27
2019-03-22T23:29:24.988Z,14.83
2019-03-22T23:32:29.424Z,11.83
2019-03-22T23:35:33.853Z,13.27
2019-03-22T23:38:38.734Z,11.53
2019-03-22T23:41:43.143Z,11.30
2019-03-22T23:44:49.654Z,11.00
2019-03-22T23:47:54.301Z,10.70
2019-03-22T23:51:00.116Z,12.53
2019-03-22T23:54:04.599Z,11.53
2019-03-22T23:57:09.098Z,9.60
